Terminal Aerodrome Forecast
Issued by NWS

Home | Current Version | Previous Version | Graphics & Text | Print | Product List | Glossary Off
Versions: 1 2 3 4 5 6 7 8 9 10 11 12 13 14

146
FTUS43 KMPX 132345
TAFAXN
TAF
KAXN 132345Z 1400/1424 14014KT P6SM OVC050
     FM140600 15015G23KT 5SM -SN OVC025
      TEMPO 1409/1412 2SM -SN BLSN OVC015
     FM141400 14015G20KT 1 1/2SM -SN OVC015=

USA.gov is the U.S. government's official web portal to all federal, state and local government web resources and services.